createdAt,value
2022-08-02T00:02:15.316Z,17.53
2022-08-02T00:04:44.100Z,17.49
2022-08-02T00:07:13.030Z,17.58
2022-08-02T00:09:41.806Z,17.74
2022-08-02T00:12:10.980Z,17.68
2022-08-02T00:14:39.894Z,17.81
2022-08-02T00:17:08.717Z,17.90
2022-08-02T00:19:38.566Z,17.74
2022-08-02T00:22:07.509Z,17.73
2022-08-02T00:24:37.346Z,17.64
2022-08-02T00:27:09.373Z,17.72
2022-08-02T00:29:44.452Z,17.75
2022-08-02T00:32:10.665Z,17.85
2022-08-02T00:34:39.748Z,17.83
2022-08-02T00:37:09.524Z,17.98
2022-08-02T00:39:38.314Z,17.91
2022-08-02T00:42:07.185Z,17.97
2022-08-02T00:44:36.130Z,18.07
2022-08-02T00:47:05.838Z,17.84
2022-08-02T00:49:34.848Z,17.88
2022-08-02T00:52:04.466Z,17.85
2022-08-02T00:54:33.297Z,17.90
2022-08-02T00:57:02.121Z,17.86
2022-08-02T00:59:31.017Z,17.83
2022-08-02T01:01:59.794Z,17.76
2022-08-02T01:04:31.052Z,17.78
2022-08-02T01:07:00.049Z,17.79
2022-08-02T01:09:29.137Z,17.74
2022-08-02T01:12:02.614Z,17.66
2022-08-02T01:14:29.571Z,17.79
2022-08-02T01:17:03.081Z,17.68
2022-08-02T01:19:41.281Z,17.66
2022-08-02T01:22:59.326Z,17.55
2022-08-02T01:25:00.540Z,17.47
2022-08-02T01:27:36.904Z,17.49
2022-08-02T01:30:07.244Z,17.50
2022-08-02T01:32:38.929Z,17.34
2022-08-02T01:35:12.220Z,17.36
2022-08-02T01:37:42.479Z,17.26
2022-08-02T01:40:15.777Z,17.38
2022-08-02T01:42:46.063Z,17.20
2022-08-02T01:45:16.150Z,17.16
2022-08-02T01:47:46.096Z,17.15
2022-08-02T01:50:16.625Z,17.10
2022-08-02T01:52:53.654Z,17.04
2022-08-02T01:55:19.354Z,17.01
2022-08-02T01:57:50.937Z,17.03
2022-08-02T02:00:21.279Z,16.95
2022-08-02T02:02:52.584Z,16.89
2022-08-02T02:05:23.807Z,16.99
2022-08-02T02:07:54.069Z,16.93
2022-08-02T02:10:24.327Z,16.79
2022-08-02T02:12:54.880Z,16.84
2022-08-02T02:15:25.143Z,17.05
2022-08-02T02:18:11.443Z,16.86
2022-08-02T02:20:26.377Z,16.98
2022-08-02T02:22:56.281Z,16.76
2022-08-02T02:25:35.495Z,16.69
2022-08-02T02:27:59.039Z,16.80
2022-08-02T02:30:29.606Z,16.66
2022-08-02T02:32:59.626Z,16.70
2022-08-02T02:35:32.844Z,16.70
2022-08-02T02:38:03.631Z,16.66
2022-08-02T02:40:34.221Z,16.58
2022-08-02T02:43:04.605Z,16.53
2022-08-02T02:45:34.331Z,16.53
2022-08-02T02:48:03.826Z,16.61
2022-08-02T02:50:34.179Z,16.58
2022-08-02T02:53:03.318Z,16.65
2022-08-02T02:55:32.508Z,16.60
2022-08-02T02:58:01.518Z,16.54
2022-08-02T03:00:49.117Z,16.51
2022-08-02T03:03:19.619Z,16.46
2022-08-02T03:05:48.896Z,16.36
2022-08-02T03:08:17.960Z,16.34
2022-08-02T03:10:48.118Z,16.40
2022-08-02T03:13:18.051Z,16.52
2022-08-02T03:15:48.049Z,16.46
2022-08-02T03:18:36.867Z,16.34
2022-08-02T03:21:06.926Z,16.27
2022-08-02T03:23:36.056Z,16.28
2022-08-02T03:26:05.483Z,16.27
2022-08-02T03:28:34.522Z,16.26
2022-08-02T03:31:03.723Z,16.23
2022-08-02T03:33:32.715Z,16.24
2022-08-02T03:36:03.028Z,16.34
2022-08-02T03:38:33.330Z,16.30
2022-08-02T03:41:03.793Z,16.17
2022-08-02T03:43:34.525Z,16.36
2022-08-02T03:46:05.627Z,16.25
2022-08-02T03:48:35.343Z,16.33
2022-08-02T03:51:06.134Z,16.18
2022-08-02T03:53:35.014Z,16.08
2022-08-02T03:56:04.946Z,16.16
2022-08-02T03:58:34.661Z,16.07
2022-08-02T04:01:03.776Z,16.06
2022-08-02T04:03:33.263Z,16.14
2022-08-02T04:06:04.276Z,16.21
2022-08-02T04:08:37.608Z,16.29
2022-08-02T04:11:22.360Z,16.35
2022-08-02T04:13:51.316Z,16.34
2022-08-02T04:16:21.951Z,16.47
2022-08-02T04:18:52.196Z,16.37
2022-08-02T04:21:22.160Z,16.21
2022-08-02T04:23:51.898Z,16.14
2022-08-02T04:26:28.133Z,16.21
2022-08-02T04:28:52.592Z,16.39
2022-08-02T04:31:22.374Z,16.39
2022-08-02T04:33:51.716Z,16.57
2022-08-02T04:36:31.059Z,16.54
2022-08-02T04:38:51.196Z,16.61
2022-08-02T04:41:20.057Z,16.73
2022-08-02T04:43:48.811Z,16.85
2022-08-02T04:46:17.574Z,16.81
2022-08-02T04:48:46.566Z,16.92
2022-08-02T04:51:16.437Z,17.02
2022-08-02T04:53:45.199Z,17.08
2022-08-02T04:56:14.117Z,17.21
2022-08-02T04:58:42.950Z,17.37
2022-08-02T05:01:13.121Z,17.66
2022-08-02T05:03:41.974Z,18.04
2022-08-02T05:06:19.276Z,18.34
2022-08-02T05:08:41.291Z,18.72
2022-08-02T05:11:10.124Z,18.99
2022-08-02T05:13:58.083Z,19.44
2022-08-02T05:16:09.633Z,19.54
2022-08-02T05:18:38.435Z,19.71
2022-08-02T05:21:07.268Z,19.94
2022-08-02T05:23:36.255Z,19.97
2022-08-02T05:26:05.250Z,20.17
2022-08-02T05:28:34.214Z,20.17
2022-08-02T05:31:04.673Z,20.26
2022-08-02T05:33:35.166Z,20.43
2022-08-02T05:36:04.060Z,20.63
2022-08-02T05:38:36.991Z,20.81
2022-08-02T05:41:03.959Z,20.76
2022-08-02T05:43:33.102Z,20.75
2022-08-02T05:46:01.940Z,20.82
2022-08-02T05:48:32.199Z,20.87
2022-08-02T05:51:02.650Z,20.78
2022-08-02T05:53:47.677Z,20.98
2022-08-02T05:56:27.034Z,21.22
2022-08-02T05:59:03.085Z,21.13
2022-08-02T06:01:40.300Z,21.52
2022-08-02T06:04:10.311Z,21.23
2022-08-02T06:06:39.133Z,21.70
2022-08-02T06:09:12.482Z,21.42
2022-08-02T06:11:43.112Z,21.75
2022-08-02T06:14:13.989Z,21.99
2022-08-02T06:16:45.425Z,21.82
2022-08-02T06:19:15.458Z,21.63
2022-08-02T06:22:40.564Z,21.81
2022-08-02T06:24:17.437Z,21.97
2022-08-02T06:26:46.699Z,21.97
2022-08-02T06:29:16.107Z,22.06
2022-08-02T06:31:45.647Z,22.06
2022-08-02T06:34:14.383Z,21.72
2022-08-02T06:36:46.298Z,21.84
2022-08-02T06:39:16.586Z,22.02
2022-08-02T06:41:45.916Z,21.91
2022-08-02T06:44:46.034Z,22.39
2022-08-02T06:47:09.460Z,22.76
2022-08-02T06:49:20.454Z,22.25
2022-08-02T06:51:49.313Z,21.92
2022-08-02T06:54:20.741Z,22.16
2022-08-02T06:56:49.557Z,21.80
2022-08-02T06:59:18.330Z,21.60
2022-08-02T07:01:47.166Z,21.36
2022-08-02T07:04:19.967Z,21.76
2022-08-02T07:06:46.280Z,21.93
2022-08-02T07:09:22.407Z,22.09
2022-08-02T07:11:45.588Z,21.88
2022-08-02T07:14:14.424Z,22.15
2022-08-02T07:16:43.167Z,22.37
2022-08-02T07:19:13.285Z,22.66
2022-08-02T07:21:56.352Z,22.53
2022-08-02T07:24:12.502Z,22.64
2022-08-02T07:27:01.506Z,22.89
2022-08-02T07:29:11.858Z,22.96
2022-08-02T07:31:40.642Z,23.21
2022-08-02T07:34:09.503Z,23.35
2022-08-02T07:36:38.704Z,23.14
2022-08-02T07:39:08.580Z,23.27
2022-08-02T07:41:39.125Z,22.91
2022-08-02T07:44:08.907Z,23.32
2022-08-02T07:46:38.169Z,23.45
2022-08-02T07:49:06.988Z,23.65
2022-08-02T07:51:36.758Z,23.62
2022-08-02T07:54:05.736Z,23.74
2022-08-02T07:56:34.639Z,23.52
2022-08-02T07:59:03.435Z,23.52
2022-08-02T08:01:32.505Z,23.38
2022-08-02T08:04:01.393Z,23.47
2022-08-02T08:06:31.438Z,23.58
2022-08-02T08:09:00.672Z,23.78
2022-08-02T08:11:29.587Z,23.73
2022-08-02T08:13:58.536Z,24.06
2022-08-02T08:16:29.073Z,23.85
2022-08-02T08:18:57.949Z,23.92
2022-08-02T08:21:27.745Z,23.60
2022-08-02T08:23:57.894Z,23.68
2022-08-02T08:26:27.876Z,24.02
2022-08-02T08:28:56.629Z,24.32
2022-08-02T08:31:25.412Z,24.92
2022-08-02T08:33:54.844Z,24.89
2022-08-02T08:36:23.695Z,25.01
2022-08-02T08:38:52.428Z,24.84
2022-08-02T08:41:21.335Z,24.52
2022-08-02T08:43:53.373Z,25.09
2022-08-02T08:46:28.617Z,25.21
2022-08-02T08:49:01.010Z,25.25
2022-08-02T08:51:31.929Z,25.38
2022-08-02T08:54:02.937Z,25.74
2022-08-02T08:56:36.295Z,26.00
2022-08-02T08:59:05.399Z,25.98
2022-08-02T09:01:49.610Z,26.62
2022-08-02T09:04:05.126Z,26.72
2022-08-02T09:06:34.049Z,26.81
2022-08-02T09:09:02.953Z,26.27
2022-08-02T09:11:32.001Z,25.83
2022-08-02T09:14:01.574Z,25.76
2022-08-02T09:16:43.765Z,25.81
2022-08-02T09:19:20.486Z,26.08
2022-08-02T09:21:53.278Z,25.82
2022-08-02T09:24:23.236Z,25.52
2022-08-02T09:26:52.418Z,26.39
2022-08-02T09:29:22.811Z,26.89
2022-08-02T09:31:53.276Z,26.97
2022-08-02T09:34:23.469Z,26.54
2022-08-02T09:36:54.439Z,26.63
2022-08-02T09:39:23.988Z,26.57
2022-08-02T09:41:53.412Z,26.39
2022-08-02T09:44:22.235Z,27.13
2022-08-02T09:46:52.077Z,27.08
2022-08-02T09:49:20.928Z,27.20
2022-08-02T09:51:51.772Z,27.18
2022-08-02T09:54:23.460Z,27.10
2022-08-02T09:56:53.085Z,27.12
2022-08-02T09:59:24.925Z,27.42
2022-08-02T10:02:01.915Z,26.02
2022-08-02T10:04:26.275Z,26.48
2022-08-02T10:06:55.267Z,26.17
2022-08-02T10:09:23.983Z,25.19
2022-08-02T10:11:53.159Z,25.73
2022-08-02T10:14:23.578Z,26.01
2022-08-02T10:16:54.881Z,25.84
2022-08-02T10:19:59.736Z,26.39
2022-08-02T10:21:55.679Z,27.08
2022-08-02T10:24:26.032Z,27.52
2022-08-02T10:26:55.265Z,27.28
2022-08-02T10:29:52.861Z,27.19
2022-08-02T10:32:13.672Z,27.04
2022-08-02T10:34:51.133Z,26.50
2022-08-02T10:37:18.439Z,26.27
2022-08-02T10:39:50.786Z,26.61
2022-08-02T10:42:19.269Z,26.97
2022-08-02T10:44:48.141Z,27.08
2022-08-02T10:47:21.372Z,27.15
2022-08-02T10:49:54.901Z,27.56
2022-08-02T10:52:25.566Z,27.65
2022-08-02T10:55:01.766Z,26.62
2022-08-02T10:57:32.277Z,27.88
2022-08-02T11:00:17.403Z,27.34
2022-08-02T11:02:47.184Z,26.91
2022-08-02T11:05:18.883Z,27.47
2022-08-02T11:07:51.320Z,27.60
2022-08-02T11:10:30.586Z,27.53
2022-08-02T11:13:03.685Z,28.25
2022-08-02T11:15:34.110Z,28.18
2022-08-02T11:18:02.934Z,28.33
2022-08-02T11:20:31.828Z,28.19
2022-08-02T11:23:02.343Z,27.85
2022-08-02T11:25:54.430Z,27.30
2022-08-02T11:28:03.723Z,27.05
2022-08-02T11:30:32.507Z,27.50
2022-08-02T11:33:01.795Z,27.87
2022-08-02T11:35:37.474Z,27.93
2022-08-02T11:38:16.311Z,28.11
2022-08-02T11:40:45.357Z,27.87
2022-08-02T11:43:18.782Z,27.58
2022-08-02T11:45:48.144Z,28.52
2022-08-02T11:48:18.613Z,28.92
2022-08-02T11:50:47.326Z,28.93
2022-08-02T11:53:16.956Z,29.03
2022-08-02T11:55:45.799Z,29.22
2022-08-02T11:58:14.549Z,28.87
2022-08-02T12:00:44.942Z,28.09
2022-08-02T12:03:17.908Z,28.83
2022-08-02T12:06:05.228Z,29.08
2022-08-02T12:08:22.233Z,29.02
2022-08-02T12:10:51.810Z,29.29
2022-08-02T12:13:20.628Z,28.78
2022-08-02T12:15:49.470Z,29.43
2022-08-02T12:18:37.641Z,29.31
2022-08-02T12:21:07.923Z,29.23
2022-08-02T12:23:38.170Z,29.93
2022-08-02T12:26:15.926Z,29.64
2022-08-02T12:28:42.640Z,27.70
2022-08-02T12:31:14.657Z,27.12
2022-08-02T12:33:53.795Z,27.73
2022-08-02T12:36:24.241Z,27.74
2022-08-02T12:38:58.524Z,28.41
2022-08-02T12:41:31.915Z,28.19
2022-08-02T12:43:58.815Z,28.21
2022-08-02T12:46:27.933Z,28.23
2022-08-02T12:49:16.832Z,28.14
2022-08-02T12:51:55.681Z,28.50
2022-08-02T12:54:17.761Z,29.02
2022-08-02T12:56:47.424Z,29.19
2022-08-02T12:59:16.655Z,29.36
2022-08-02T13:01:45.817Z,29.49
2022-08-02T13:04:16.516Z,29.55
2022-08-02T13:06:45.683Z,28.77
2022-08-02T13:09:16.098Z,28.22
2022-08-02T13:11:45.381Z,28.38
2022-08-02T13:14:14.552Z,29.39
2022-08-02T13:16:44.794Z,29.06
2022-08-02T13:19:16.869Z,28.37
2022-08-02T13:22:11.197Z,28.88
2022-08-02T13:24:27.388Z,29.38
2022-08-02T13:26:47.616Z,29.40
2022-08-02T13:29:16.359Z,29.34
2022-08-02T13:31:45.224Z,29.48
2022-08-02T13:34:14.315Z,29.29
2022-08-02T13:36:43.212Z,28.29
2022-08-02T13:39:12.731Z,29.32
2022-08-02T13:41:41.649Z,28.74
2022-08-02T13:44:11.164Z,28.74
2022-08-02T13:46:45.391Z,28.47
2022-08-02T13:49:13.943Z,28.54
2022-08-02T13:51:41.100Z,29.07
2022-08-02T13:54:10.039Z,27.75
2022-08-02T13:56:39.769Z,28.19
2022-08-02T13:59:55.437Z,29.19
2022-08-02T14:01:39.364Z,29.53
2022-08-02T14:04:09.382Z,29.49
2022-08-02T14:06:51.154Z,28.92
2022-08-02T14:09:20.045Z,29.48
2022-08-02T14:11:49.416Z,29.36
2022-08-02T14:14:18.156Z,29.18
2022-08-02T14:16:47.056Z,29.54
2022-08-02T14:19:17.325Z,28.92
2022-08-02T14:21:48.079Z,29.62
2022-08-02T14:24:16.909Z,29.73
2022-08-02T14:26:46.048Z,29.57
2022-08-02T14:29:15.068Z,29.59
2022-08-02T14:31:45.092Z,29.74
2022-08-02T14:34:14.618Z,29.83
2022-08-02T14:36:43.410Z,29.54
2022-08-02T14:39:12.324Z,29.60
2022-08-02T14:42:00.144Z,29.53
2022-08-02T14:44:11.585Z,29.13
2022-08-02T14:46:43.732Z,29.20
2022-08-02T14:49:14.642Z,29.15
2022-08-02T14:51:46.649Z,29.18
2022-08-02T14:54:15.374Z,29.25
2022-08-02T14:56:45.827Z,29.09
2022-08-02T14:59:16.251Z,29.31
2022-08-02T15:01:46.022Z,29.47
2022-08-02T15:04:14.879Z,28.37
2022-08-02T15:06:43.633Z,28.98
2022-08-02T15:09:15.101Z,29.13
2022-08-02T15:11:48.019Z,29.22
2022-08-02T15:14:14.205Z,29.19
2022-08-02T15:16:56.138Z,29.38
2022-08-02T15:19:13.522Z,29.23
2022-08-02T15:21:54.696Z,29.23
2022-08-02T15:24:12.659Z,29.11
2022-08-02T15:26:41.437Z,29.31
2022-08-02T15:29:10.185Z,29.14
2022-08-02T15:31:41.773Z,29.08
2022-08-02T15:34:09.350Z,28.85
2022-08-02T15:36:38.081Z,28.97
2022-08-02T15:39:06.901Z,29.02
2022-08-02T15:41:36.598Z,28.84
2022-08-02T15:44:06.997Z,28.29
2022-08-02T15:46:38.183Z,28.68
2022-08-02T15:49:07.058Z,28.67
2022-08-02T15:51:35.812Z,28.61
2022-08-02T15:54:04.760Z,28.55
2022-08-02T15:56:33.496Z,28.38
2022-08-02T15:59:02.335Z,28.42
2022-08-02T16:01:36.880Z,28.54
2022-08-02T16:04:01.727Z,28.59
2022-08-02T16:06:30.514Z,28.27
2022-08-02T16:08:59.259Z,28.21
2022-08-02T16:11:28.007Z,27.94
2022-08-02T16:13:58.447Z,28.05
2022-08-02T16:16:29.503Z,27.99
2022-08-02T16:19:45.976Z,28.04
2022-08-02T16:24:36.982Z,27.99
2022-08-02T16:27:05.838Z,28.06
2022-08-02T16:29:36.156Z,28.03
2022-08-02T16:32:05.759Z,27.93
2022-08-02T16:34:56.717Z,27.49
2022-08-02T16:37:05.828Z,27.40
2022-08-02T16:39:36.828Z,27.07
2022-08-02T16:42:05.810Z,27.11
2022-08-02T16:44:34.847Z,27.23
2022-08-02T16:47:03.621Z,27.18
2022-08-02T16:50:07.309Z,27.38
2022-08-02T16:52:03.754Z,27.36
2022-08-02T16:54:32.495Z,27.11
2022-08-02T16:57:02.984Z,27.19
2022-08-02T16:59:42.591Z,27.36
2022-08-02T17:02:15.261Z,27.05
2022-08-02T17:04:36.715Z,26.98
2022-08-02T17:07:11.064Z,26.93
2022-08-02T17:10:04.659Z,27.00
2022-08-02T17:12:10.951Z,26.91
2022-08-02T17:14:54.563Z,27.02
2022-08-02T17:17:14.442Z,26.97
2022-08-02T17:19:40.029Z,27.02
2022-08-02T17:22:10.228Z,26.93
2022-08-02T17:24:39.259Z,27.02
2022-08-02T17:27:07.985Z,26.83
2022-08-02T17:29:36.760Z,26.73
2022-08-02T17:32:12.107Z,26.55
2022-08-02T17:34:37.866Z,26.39
2022-08-02T17:37:06.849Z,26.19
2022-08-02T17:39:43.948Z,26.03
2022-08-02T17:42:07.928Z,25.77
2022-08-02T17:44:40.748Z,25.39
2022-08-02T17:47:11.582Z,25.36
2022-08-02T17:49:44.374Z,25.15
2022-08-02T17:52:48.636Z,24.84
2022-08-02T17:54:43.739Z,24.65
2022-08-02T17:57:12.876Z,24.51
2022-08-02T17:59:44.829Z,24.31
2022-08-02T18:02:15.280Z,24.09
2022-08-02T18:04:44.215Z,24.01
2022-08-02T18:07:23.458Z,23.81
2022-08-02T18:09:45.288Z,23.63
2022-08-02T18:12:15.710Z,23.49
2022-08-02T18:14:49.069Z,23.39
2022-08-02T18:17:19.143Z,23.21
2022-08-02T18:19:55.128Z,23.03
2022-08-02T18:22:19.080Z,22.86
2022-08-02T18:24:49.519Z,22.66
2022-08-02T18:27:18.773Z,22.65
2022-08-02T18:30:00.206Z,22.53
2022-08-02T18:33:53.903Z,22.27
2022-08-02T18:34:50.101Z,22.12
2022-08-02T18:37:19.859Z,21.95
2022-08-02T18:39:51.316Z,21.87
2022-08-02T18:42:20.189Z,21.71
2022-08-02T18:44:48.903Z,21.61
2022-08-02T18:47:17.647Z,21.53
2022-08-02T18:49:50.403Z,21.37
2022-08-02T18:52:30.795Z,21.23
2022-08-02T18:54:47.169Z,21.15
2022-08-02T18:58:17.407Z,20.93
2022-08-02T18:59:51.331Z,20.89
2022-08-02T19:02:19.283Z,20.79
2022-08-02T19:04:48.084Z,20.62
2022-08-02T19:07:17.916Z,20.34
2022-08-02T19:09:48.273Z,20.40
2022-08-02T19:12:17.593Z,20.38
2022-08-02T19:14:47.544Z,20.32
2022-08-02T19:17:54.245Z,20.27
2022-08-02T19:19:48.011Z,20.20
2022-08-02T19:24:51.138Z,20.01
2022-08-02T19:27:32.002Z,20.00
2022-08-02T19:29:53.461Z,19.93
2022-08-02T19:32:40.267Z,19.89
2022-08-02T19:34:51.747Z,19.85
2022-08-02T19:37:20.740Z,19.69
2022-08-02T19:39:50.027Z,19.56
2022-08-02T19:42:19.261Z,19.55
2022-08-02T19:44:48.406Z,19.47
2022-08-02T19:47:19.177Z,19.37
2022-08-02T19:52:21.211Z,19.32
2022-08-02T19:54:56.001Z,19.28
2022-08-02T19:59:49.638Z,19.17
2022-08-02T20:02:19.349Z,19.12
2022-08-02T20:04:50.072Z,19.08
2022-08-02T20:07:24.517Z,19.03
2022-08-02T20:09:49.706Z,19.02
2022-08-02T20:12:20.282Z,18.94
2022-08-02T20:14:51.193Z,18.84
2022-08-02T20:17:21.125Z,18.75
2022-08-02T20:19:50.025Z,18.72
2022-08-02T20:22:20.504Z,18.68
2022-08-02T20:24:50.470Z,18.64
2022-08-02T20:27:24.813Z,18.56
2022-08-02T20:29:50.018Z,18.48
2022-08-02T20:32:23.447Z,18.47
2022-08-02T20:34:53.583Z,18.41
2022-08-02T20:37:59.454Z,18.32
2022-08-02T20:39:52.809Z,18.20
2022-08-02T20:42:24.386Z,18.18
2022-08-02T20:44:55.913Z,18.17
2022-08-02T20:47:27.896Z,18.12
2022-08-02T20:50:12.988Z,18.05
2022-08-02T20:52:43.444Z,18.03
2022-08-02T20:55:17.221Z,17.97
2022-08-02T21:00:14.055Z,17.72
2022-08-02T21:02:45.916Z,17.65
2022-08-02T21:05:18.448Z,17.51
2022-08-02T21:07:53.424Z,17.54
2022-08-02T21:10:18.424Z,17.41
2022-08-02T21:12:47.471Z,17.35
2022-08-02T21:15:17.927Z,17.39
2022-08-02T21:18:03.391Z,17.42
2022-08-02T21:20:18.781Z,17.38
2022-08-02T21:22:49.977Z,17.34
2022-08-02T21:25:42.749Z,17.29
2022-08-02T21:27:56.481Z,17.30
2022-08-02T21:30:25.324Z,17.29
2022-08-02T21:32:57.825Z,17.20
2022-08-02T21:35:26.564Z,17.15
2022-08-02T21:37:58.169Z,17.16
2022-08-02T21:40:25.844Z,17.12
2022-08-02T21:42:55.876Z,17.24
2022-08-02T21:45:24.629Z,17.11
2022-08-02T21:47:54.964Z,17.09
2022-08-02T21:50:23.754Z,17.00
2022-08-02T21:52:54.084Z,17.00
2022-08-02T21:55:24.414Z,16.99
2022-08-02T21:57:53.300Z,16.97
2022-08-02T22:00:28.246Z,16.88
2022-08-02T22:02:54.136Z,16.88
2022-08-02T22:05:22.988Z,16.83
2022-08-02T22:07:52.154Z,16.77
2022-08-02T22:10:20.985Z,16.67
2022-08-02T22:12:49.828Z,16.68
2022-08-02T22:15:25.846Z,16.67
2022-08-02T22:17:59.820Z,16.58
2022-08-02T22:20:22.267Z,16.57
2022-08-02T22:22:52.287Z,16.53
2022-08-02T22:25:35.957Z,16.52
2022-08-02T22:28:36.139Z,16.50
2022-08-02T22:30:22.648Z,16.47
2022-08-02T22:33:15.025Z,16.43
2022-08-02T22:35:41.036Z,16.42
2022-08-02T22:38:14.672Z,16.37
2022-08-02T22:40:43.439Z,16.34
2022-08-02T22:43:12.629Z,16.30
2022-08-02T22:45:46.311Z,16.29
2022-08-02T22:48:15.253Z,16.28
2022-08-02T22:50:44.514Z,16.26
2022-08-02T22:53:13.259Z,16.23
2022-08-02T22:55:43.628Z,16.12
2022-08-02T22:58:12.420Z,15.91
2022-08-02T22:58:58.465Z,20.15
2022-08-02T22:59:05.810Z,17.79
2022-08-02T22:59:07.157Z,19.33
2022-08-02T22:59:07.885Z,19.24
2022-08-02T23:00:42.128Z,15.93
2022-08-02T23:03:10.852Z,15.93
2022-08-02T23:05:39.642Z,15.93
2022-08-02T23:08:08.457Z,15.88
2022-08-02T23:10:37.275Z,15.86
2022-08-02T23:13:06.038Z,15.79
2022-08-02T23:15:36.404Z,15.78
2022-08-02T23:18:23.040Z,15.78
2022-08-02T23:20:51.734Z,15.75
2022-08-02T23:23:21.870Z,15.72
2022-08-02T23:25:50.603Z,15.68
2022-08-02T23:28:19.333Z,15.64
2022-08-02T23:30:48.135Z,15.66
2022-08-02T23:33:16.872Z,15.63
2022-08-02T23:35:45.606Z,15.62
2022-08-02T23:38:14.408Z,15.61
2022-08-02T23:40:43.162Z,15.59
2022-08-02T23:43:14.918Z,15.59
2022-08-02T23:45:45.675Z,15.62
2022-08-02T23:48:14.715Z,15.60
2022-08-02T23:50:43.543Z,15.59
2022-08-02T23:53:12.369Z,15.57
2022-08-02T23:55:42.154Z,15.55
2022-08-02T23:58:10.976Z,15.53
